createdAt,value
2023-02-19T00:00:00.001Z,79.99
2023-02-19T00:02:28.150Z,79.22
2023-02-19T00:04:56.278Z,79.18
2023-02-19T00:07:24.177Z,79.35
2023-02-19T00:09:55.029Z,79.63
2023-02-19T00:12:23.297Z,79.63
2023-02-19T00:14:51.187Z,79.40
2023-02-19T00:17:19.061Z,78.93
2023-02-19T00:19:47.097Z,79.34
2023-02-19T00:22:14.836Z,79.46
2023-02-19T00:24:42.699Z,79.66
2023-02-19T00:27:10.871Z,79.40
2023-02-19T00:29:38.758Z,79.17
2023-02-19T00:32:06.963Z,79.35
2023-02-19T00:34:35.188Z,79.95
2023-02-19T00:37:02.995Z,79.16
2023-02-19T00:39:30.841Z,78.73
2023-02-19T00:42:01.121Z,78.69
2023-02-19T00:44:28.960Z,79.57
2023-02-19T00:46:56.708Z,79.98
2023-02-19T00:49:24.952Z,80.51
2023-02-19T00:51:53.902Z,79.00
2023-02-19T00:54:23.022Z,79.64
2023-02-19T00:56:51.674Z,79.64
2023-02-19T00:59:19.791Z,80.64
2023-02-19T01:01:47.928Z,79.42
2023-02-19T01:04:16.781Z,79.68
2023-02-19T01:06:44.721Z,78.99
2023-02-19T01:09:12.779Z,79.35
2023-02-19T01:11:42.069Z,79.22
2023-02-19T01:14:10.952Z,79.54
2023-02-19T01:16:38.854Z,79.69
2023-02-19T01:19:07.067Z,79.61
2023-02-19T01:21:34.924Z,80.81
2023-02-19T01:24:04.156Z,81.22
2023-02-19T01:26:35.540Z,79.54
2023-02-19T01:29:05.161Z,79.39
2023-02-19T01:31:33.611Z,80.28
2023-02-19T01:34:04.279Z,79.36
2023-02-19T01:36:34.442Z,79.50
2023-02-19T01:39:05.356Z,79.07
2023-02-19T01:41:37.010Z,78.82
2023-02-19T01:44:09.901Z,78.56
2023-02-19T01:46:42.829Z,78.87
2023-02-19T01:49:19.032Z,78.73
2023-02-19T01:51:52.767Z,79.18
2023-02-19T01:54:25.530Z,78.89
2023-02-19T01:56:54.164Z,78.82
2023-02-19T01:59:22.756Z,78.82
2023-02-19T02:01:50.800Z,79.54
2023-02-19T02:04:19.323Z,79.78
2023-02-19T02:06:57.780Z,79.57
2023-02-19T02:09:49.641Z,79.54
2023-02-19T02:12:17.839Z,79.69
2023-02-19T02:14:48.589Z,79.40
2023-02-19T02:17:30.603Z,79.25
2023-02-19T02:20:18.093Z,78.62
2023-02-19T02:23:17.125Z,79.00
2023-02-19T02:25:59.579Z,78.65
2023-02-19T02:28:57.998Z,79.70
2023-02-19T02:31:43.053Z,78.99
2023-02-19T02:34:23.953Z,78.94
2023-02-19T02:36:56.105Z,78.51
2023-02-19T02:39:27.658Z,79.54
2023-02-19T02:42:18.306Z,79.72
2023-02-19T02:45:07.135Z,78.86
2023-02-19T02:47:48.134Z,79.34
2023-02-19T02:50:21.575Z,79.54
2023-02-19T02:53:15.008Z,79.34
2023-02-19T02:55:46.177Z,79.53
2023-02-19T02:58:15.984Z,80.38
2023-02-19T03:01:26.743Z,79.99
2023-02-19T03:04:11.474Z,79.37
2023-02-19T03:06:41.806Z,79.08
2023-02-19T03:09:30.460Z,79.24
2023-02-19T03:12:21.660Z,79.27
2023-02-19T03:15:14.933Z,79.38
2023-02-19T03:18:17.123Z,79.60
2023-02-19T03:20:49.080Z,79.55
2023-02-19T03:23:18.660Z,79.82
2023-02-19T03:26:06.710Z,79.77
2023-02-19T03:28:59.859Z,79.70
2023-02-19T03:31:32.255Z,79.64
2023-02-19T03:34:05.623Z,81.33
2023-02-19T03:36:54.263Z,80.95
2023-02-19T03:39:25.664Z,79.87
2023-02-19T03:42:12.558Z,80.56
2023-02-19T03:45:04.195Z,80.59
2023-02-19T03:48:13.821Z,80.65
2023-02-19T03:51:26.965Z,80.66
2023-02-19T03:54:22.709Z,80.59
2023-02-19T03:57:00.927Z,80.37
2023-02-19T03:59:38.658Z,80.00
2023-02-19T04:02:14.158Z,80.17
2023-02-19T04:04:56.277Z,80.29
2023-02-19T04:07:27.237Z,81.56
2023-02-19T04:09:55.697Z,81.52
2023-02-19T04:12:24.205Z,81.01
2023-02-19T04:15:22.715Z,80.54
2023-02-19T04:18:04.588Z,79.81
2023-02-19T04:20:40.150Z,80.55
2023-02-19T04:23:08.862Z,79.86
2023-02-19T04:25:39.583Z,79.86
2023-02-19T04:28:08.745Z,80.16
2023-02-19T04:30:37.059Z,80.45
2023-02-19T04:33:05.017Z,81.11
2023-02-19T04:35:32.888Z,81.76
2023-02-19T04:38:01.156Z,81.60
2023-02-19T04:40:29.058Z,80.46
2023-02-19T04:42:56.832Z,81.38
2023-02-19T04:45:25.152Z,80.83
2023-02-19T04:47:52.989Z,81.10
2023-02-19T04:50:21.932Z,80.09
2023-02-19T04:52:50.381Z,81.18
2023-02-19T04:55:18.474Z,80.90
2023-02-19T04:57:46.343Z,80.54
2023-02-19T05:00:14.827Z,80.29
2023-02-19T05:02:45.562Z,80.15
2023-02-19T05:05:13.410Z,80.03
2023-02-19T05:07:41.566Z,79.36
2023-02-19T05:10:09.465Z,81.15
2023-02-19T05:12:37.319Z,81.56
2023-02-19T05:15:05.833Z,80.99
2023-02-19T05:17:36.915Z,80.73
2023-02-19T05:20:05.619Z,80.84
2023-02-19T05:22:33.557Z,80.08
2023-02-19T05:25:01.382Z,79.93
2023-02-19T05:27:34.083Z,79.80
2023-02-19T05:30:02.031Z,79.22
2023-02-19T05:32:31.866Z,79.63
2023-02-19T05:34:59.721Z,80.10
2023-02-19T05:37:30.657Z,80.08
2023-02-19T05:39:58.888Z,79.58
2023-02-19T05:42:26.678Z,80.59
2023-02-19T05:44:54.482Z,80.33
2023-02-19T05:47:22.720Z,81.72
2023-02-19T05:49:50.566Z,82.82
2023-02-19T05:52:18.503Z,81.31
2023-02-19T05:54:46.699Z,82.25
2023-02-19T05:57:14.550Z,79.34
2023-02-19T05:59:42.328Z,79.88
2023-02-19T06:02:10.658Z,80.71
2023-02-19T06:04:39.126Z,79.71
2023-02-19T06:07:06.946Z,80.26
2023-02-19T06:09:34.821Z,78.87
2023-02-19T06:12:03.100Z,78.31
2023-02-19T06:14:30.869Z,78.80
2023-02-19T06:16:58.565Z,79.00
2023-02-19T06:19:26.599Z,79.75
2023-02-19T06:21:54.392Z,81.32
2023-02-19T06:24:22.142Z,80.70
2023-02-19T06:26:50.326Z,79.09
2023-02-19T06:29:18.095Z,81.13
2023-02-19T06:31:46.079Z,79.14
2023-02-19T06:34:14.484Z,78.62
2023-02-19T06:36:42.263Z,78.29
2023-02-19T06:39:10.822Z,78.66
2023-02-19T06:41:38.987Z,78.64
2023-02-19T06:44:06.790Z,82.47
2023-02-19T06:46:35.862Z,82.61
2023-02-19T06:49:06.953Z,79.20
2023-02-19T06:51:35.200Z,79.72
2023-02-19T06:54:03.057Z,81.32
2023-02-19T06:56:34.102Z,79.49
2023-02-19T06:59:05.266Z,82.86
2023-02-19T07:01:35.108Z,81.01
2023-02-19T07:04:03.831Z,82.31
2023-02-19T07:06:32.288Z,81.36
2023-02-19T07:09:01.358Z,79.08
2023-02-19T07:11:35.057Z,79.54
2023-02-19T07:14:05.100Z,80.68
2023-02-19T07:16:32.889Z,78.16
2023-02-19T07:19:01.229Z,79.59
2023-02-19T07:21:30.052Z,78.78
2023-02-19T07:24:00.662Z,79.37
2023-02-19T07:26:28.605Z,78.12
2023-02-19T07:28:56.847Z,77.21
2023-02-19T07:31:25.393Z,84.37
2023-02-19T07:33:53.203Z,79.18
2023-02-19T07:36:23.213Z,80.30
2023-02-19T07:38:58.303Z,80.05
2023-02-19T07:41:27.693Z,84.62
2023-02-19T07:43:57.186Z,83.07
2023-02-19T07:46:25.666Z,83.19
2023-02-19T07:48:53.728Z,77.75
2023-02-19T07:51:21.502Z,81.70
2023-02-19T07:53:50.816Z,83.58
2023-02-19T07:56:19.866Z,77.36
2023-02-19T07:58:47.581Z,76.61
2023-02-19T08:01:41.089Z,77.11
2023-02-19T08:04:09.817Z,76.23
2023-02-19T08:06:37.482Z,80.56
2023-02-19T08:09:06.220Z,80.25
2023-02-19T08:11:52.951Z,80.49
2023-02-19T08:14:24.285Z,79.22
2023-02-19T08:16:53.288Z,80.16
2023-02-19T08:19:21.460Z,82.95
2023-02-19T08:21:49.308Z,77.45
2023-02-19T08:24:17.440Z,81.48
2023-02-19T08:26:45.213Z,75.50
2023-02-19T08:29:12.986Z,78.45
2023-02-19T08:31:41.172Z,79.78
2023-02-19T08:34:08.957Z,75.44
2023-02-19T08:36:36.698Z,75.66
2023-02-19T08:39:04.750Z,79.54
2023-02-19T08:41:32.547Z,77.47
2023-02-19T08:44:00.455Z,75.42
2023-02-19T08:46:28.691Z,80.91
2023-02-19T08:48:56.449Z,74.71
2023-02-19T08:51:24.148Z,82.29
2023-02-19T08:53:52.288Z,75.02
2023-02-19T08:56:23.352Z,75.09
2023-02-19T08:58:51.286Z,75.48
2023-02-19T09:04:04.345Z,74.59
2023-02-19T09:06:32.607Z,79.83
2023-02-19T09:09:00.459Z,76.19
2023-02-19T09:11:28.252Z,81.09
2023-02-19T09:13:57.784Z,77.77
2023-02-19T09:16:25.631Z,78.09
2023-02-19T09:18:53.624Z,79.89
2023-02-19T09:21:21.847Z,76.20
2023-02-19T09:23:49.680Z,75.07
2023-02-19T09:26:17.534Z,75.22
2023-02-19T09:28:45.983Z,76.58
2023-02-19T09:31:17.372Z,74.89
2023-02-19T09:33:47.376Z,75.86
2023-02-19T09:36:16.357Z,81.31
2023-02-19T09:38:44.217Z,78.97
2023-02-19T09:41:32.858Z,81.58
2023-02-19T09:44:03.564Z,77.60
2023-02-19T09:46:51.846Z,78.54
2023-02-19T09:49:36.070Z,76.33
2023-02-19T09:52:13.806Z,79.12
2023-02-19T09:54:42.215Z,78.02
2023-02-19T09:57:16.821Z,76.73
2023-02-19T10:00:00.609Z,79.12
2023-02-19T10:02:31.181Z,78.09
2023-02-19T10:04:59.988Z,76.44
2023-02-19T10:07:39.724Z,79.76
2023-02-19T10:10:11.038Z,75.75
2023-02-19T10:12:43.249Z,78.36
2023-02-19T10:15:38.595Z,76.53
2023-02-19T10:18:10.072Z,77.20
2023-02-19T10:20:40.673Z,79.25
2023-02-19T10:23:15.216Z,75.81
2023-02-19T10:25:58.473Z,76.74
2023-02-19T10:28:35.113Z,78.06
2023-02-19T10:31:07.794Z,78.78
2023-02-19T10:33:58.746Z,77.06
2023-02-19T10:36:37.601Z,77.30
2023-02-19T10:42:01.516Z,78.48
2023-02-19T10:44:36.274Z,77.59
2023-02-19T10:47:04.990Z,79.78
2023-02-19T10:49:37.667Z,78.83
2023-02-19T10:52:18.314Z,76.94
2023-02-19T10:54:47.835Z,77.24
2023-02-19T10:57:15.956Z,79.76
2023-02-19T10:59:52.086Z,79.40
2023-02-19T11:02:22.144Z,80.77
2023-02-19T11:05:07.997Z,80.60
2023-02-19T11:07:56.254Z,80.71
2023-02-19T11:10:31.109Z,80.04
2023-02-19T11:13:04.657Z,78.13
2023-02-19T11:15:37.526Z,77.77
2023-02-19T11:18:23.870Z,78.24
2023-02-19T11:20:55.922Z,76.06
2023-02-19T11:23:36.180Z,77.48
2023-02-19T11:26:17.438Z,76.55
2023-02-19T11:28:45.684Z,78.31
2023-02-19T11:31:19.865Z,80.30
2023-02-19T11:34:01.602Z,79.59
2023-02-19T11:36:37.804Z,81.68
2023-02-19T11:39:17.789Z,77.69
2023-02-19T11:42:13.254Z,76.13
2023-02-19T11:44:59.560Z,78.26
2023-02-19T11:47:51.511Z,78.88
2023-02-19T11:50:46.846Z,75.91
2023-02-19T11:53:27.232Z,78.71
2023-02-19T11:56:24.131Z,78.39
2023-02-19T11:58:58.946Z,76.37
2023-02-19T12:01:31.353Z,74.84
2023-02-19T12:04:40.286Z,74.75
2023-02-19T12:07:26.409Z,76.89
2023-02-19T12:10:21.792Z,74.27
2023-02-19T12:13:12.806Z,77.24
2023-02-19T12:15:57.636Z,73.98
2023-02-19T12:18:37.168Z,76.84
2023-02-19T12:21:36.398Z,74.03
2023-02-19T12:24:15.791Z,74.43
2023-02-19T12:27:11.469Z,78.29
2023-02-19T12:29:52.044Z,77.83
2023-02-19T12:32:38.896Z,75.76
2023-02-19T12:35:35.075Z,74.15
2023-02-19T12:38:18.842Z,74.29
2023-02-19T12:41:12.073Z,76.04
2023-02-19T12:43:55.901Z,76.08
2023-02-19T12:46:33.934Z,77.23
2023-02-19T12:49:07.986Z,76.95
2023-02-19T12:51:44.124Z,74.00
2023-02-19T12:54:25.083Z,77.79
2023-02-19T12:57:17.755Z,75.38
2023-02-19T13:00:09.399Z,79.61
2023-02-19T13:02:42.836Z,76.49
2023-02-19T13:05:38.932Z,78.28
2023-02-19T13:08:26.687Z,79.92
2023-02-19T13:11:05.794Z,79.77
2023-02-19T13:13:51.934Z,78.82
2023-02-19T13:16:23.686Z,80.34
2023-02-19T13:18:58.637Z,77.50
2023-02-19T13:21:49.278Z,78.04
2023-02-19T13:24:22.100Z,79.10
2023-02-19T13:27:08.884Z,78.68
2023-02-19T13:30:14.054Z,80.08
2023-02-19T13:32:54.308Z,82.46
2023-02-19T13:35:29.276Z,79.26
2023-02-19T13:38:02.447Z,77.76
2023-02-19T13:40:52.951Z,79.57
2023-02-19T13:43:26.126Z,79.68
2023-02-19T13:46:00.697Z,79.44
2023-02-19T13:48:40.268Z,78.79
2023-02-19T13:51:33.934Z,80.94
2023-02-19T13:54:14.286Z,82.09
2023-02-19T13:56:42.311Z,80.64
2023-02-19T13:59:36.596Z,82.18
2023-02-19T14:02:04.338Z,83.62
2023-02-19T14:04:32.453Z,80.64
2023-02-19T14:07:06.347Z,79.98
2023-02-19T14:09:46.244Z,80.72
2023-02-19T14:12:15.653Z,78.69
2023-02-19T14:14:55.768Z,79.95
2023-02-19T14:17:40.565Z,80.58
2023-02-19T14:20:18.152Z,80.12
2023-02-19T14:22:55.625Z,79.79
2023-02-19T14:25:39.616Z,79.45
2023-02-19T14:28:07.407Z,81.59
2023-02-19T14:30:52.971Z,80.92
2023-02-19T14:33:29.443Z,79.11
2023-02-19T14:36:06.011Z,81.21
2023-02-19T14:38:43.030Z,80.16
2023-02-19T14:41:13.616Z,79.79
2023-02-19T14:43:42.064Z,78.54
2023-02-19T14:46:25.454Z,78.99
2023-02-19T14:48:54.026Z,78.55
2023-02-19T14:51:21.834Z,79.27
2023-02-19T14:53:50.518Z,78.67
2023-02-19T14:56:26.745Z,79.49
2023-02-19T14:59:13.915Z,78.76
2023-02-19T15:01:42.311Z,78.38
2023-02-19T15:04:25.789Z,78.76
2023-02-19T15:06:57.447Z,78.87
2023-02-19T15:09:32.497Z,78.31
2023-02-19T15:12:03.102Z,78.64
2023-02-19T15:14:32.633Z,77.82
2023-02-19T15:17:05.365Z,78.22
2023-02-19T15:19:39.784Z,77.73
2023-02-19T15:22:08.175Z,77.69
2023-02-19T15:24:36.671Z,77.53
2023-02-19T15:27:04.572Z,78.25
2023-02-19T15:29:32.802Z,78.46
2023-02-19T15:32:02.532Z,78.13
2023-02-19T15:34:32.758Z,78.78
2023-02-19T15:37:05.002Z,78.32
2023-02-19T15:39:46.836Z,77.71
2023-02-19T15:42:22.868Z,77.35
2023-02-19T15:45:00.404Z,77.73
2023-02-19T15:47:42.604Z,77.82
2023-02-19T15:50:23.465Z,78.47
2023-02-19T15:53:14.987Z,78.24
2023-02-19T15:56:07.214Z,77.68
2023-02-19T15:58:44.399Z,77.74
2023-02-19T16:01:25.581Z,78.11
2023-02-19T16:03:54.534Z,77.72
2023-02-19T16:06:24.644Z,77.96
2023-02-19T16:08:52.487Z,77.55
2023-02-19T16:11:23.512Z,78.26
2023-02-19T16:13:52.169Z,78.28
2023-02-19T16:16:25.112Z,78.45
2023-02-19T16:18:54.113Z,78.14
2023-02-19T16:21:25.266Z,79.54
2023-02-19T16:24:24.816Z,78.40
2023-02-19T16:26:53.320Z,78.46
2023-02-19T16:29:31.050Z,78.33
2023-02-19T16:32:07.820Z,79.69
2023-02-19T16:34:48.751Z,80.41
2023-02-19T16:37:35.927Z,79.68
2023-02-19T16:40:09.562Z,78.95
2023-02-19T16:42:54.297Z,78.07
2023-02-19T16:45:22.226Z,77.89
2023-02-19T16:47:51.586Z,78.07
2023-02-19T16:50:25.594Z,77.93
2023-02-19T16:52:58.178Z,79.09
2023-02-19T16:55:26.993Z,78.16
2023-02-19T16:57:55.550Z,79.16
2023-02-19T17:00:26.315Z,80.18
2023-02-19T17:03:09.360Z,78.40
2023-02-19T17:05:40.031Z,77.26
2023-02-19T17:08:39.073Z,78.59
2023-02-19T17:11:15.966Z,78.54
2023-02-19T17:13:46.211Z,78.57
2023-02-19T17:16:20.197Z,77.54
2023-02-19T17:18:48.225Z,77.00
2023-02-19T17:21:28.441Z,77.22
2023-02-19T17:23:57.492Z,79.18
2023-02-19T17:26:30.844Z,77.32
2023-02-19T17:29:04.159Z,77.11
2023-02-19T17:31:32.792Z,78.01
2023-02-19T17:34:00.801Z,77.55
2023-02-19T17:36:33.094Z,77.00
2023-02-19T17:39:02.982Z,80.05
2023-02-19T17:41:30.910Z,79.66
2023-02-19T17:43:58.832Z,79.75
2023-02-19T17:46:28.074Z,78.51
2023-02-19T17:48:56.589Z,77.72
2023-02-19T17:51:24.710Z,77.61
2023-02-19T17:53:53.786Z,77.55
2023-02-19T17:56:25.951Z,76.75
2023-02-19T17:58:58.575Z,77.03
2023-02-19T18:01:26.503Z,77.67
2023-02-19T18:03:55.064Z,77.85
2023-02-19T18:06:22.967Z,79.47
2023-02-19T18:08:52.759Z,79.21
2023-02-19T18:11:24.472Z,81.76
2023-02-19T18:13:52.997Z,80.21
2023-02-19T18:16:23.053Z,80.00
2023-02-19T18:18:51.117Z,78.19
2023-02-19T18:21:19.216Z,80.28
2023-02-19T18:23:47.537Z,78.31
2023-02-19T18:26:20.841Z,77.27
2023-02-19T18:28:49.314Z,78.59
2023-02-19T18:31:20.424Z,80.80
2023-02-19T18:33:48.358Z,80.98
2023-02-19T18:36:16.629Z,81.13
2023-02-19T18:38:44.943Z,80.58
2023-02-19T18:41:14.736Z,79.64
2023-02-19T18:43:43.329Z,77.94
2023-02-19T18:46:11.795Z,78.44
2023-02-19T18:48:39.600Z,78.97
2023-02-19T18:51:11.558Z,78.67
2023-02-19T18:53:39.742Z,79.68
2023-02-19T18:56:09.458Z,78.44
2023-02-19T18:58:37.370Z,80.26
2023-02-19T19:01:05.449Z,78.54
2023-02-19T19:03:33.825Z,79.49
2023-02-19T19:06:01.788Z,80.69
2023-02-19T19:08:30.734Z,80.04
2023-02-19T19:10:59.151Z,78.54
2023-02-19T19:13:30.047Z,77.96
2023-02-19T19:15:57.996Z,78.22
2023-02-19T19:18:26.306Z,78.95
2023-02-19T19:20:56.888Z,78.51
2023-02-19T19:23:24.680Z,78.75
2023-02-19T19:25:54.890Z,81.18
2023-02-19T19:28:22.932Z,79.52
2023-02-19T19:30:50.809Z,80.58
2023-02-19T19:33:19.126Z,79.86
2023-02-19T19:35:47.013Z,79.24
2023-02-19T19:38:14.861Z,79.15
2023-02-19T19:40:43.016Z,81.15
2023-02-19T19:43:10.972Z,79.93
2023-02-19T19:45:39.213Z,79.07
2023-02-19T19:48:07.512Z,78.96
2023-02-19T19:50:35.288Z,80.66
2023-02-19T19:53:05.963Z,80.02
2023-02-19T19:55:34.466Z,80.77
2023-02-19T19:58:02.307Z,78.56
2023-02-19T20:00:30.278Z,81.04
2023-02-19T20:02:58.636Z,78.90
2023-02-19T20:05:26.457Z,80.27
2023-02-19T20:07:57.399Z,83.49
2023-02-19T20:10:26.047Z,81.54
2023-02-19T20:12:53.961Z,82.03
2023-02-19T20:15:22.922Z,81.01
2023-02-19T20:17:51.103Z,79.68
2023-02-19T20:20:19.447Z,78.82
2023-02-19T20:22:47.295Z,78.19
2023-02-19T20:25:16.422Z,78.60
2023-02-19T20:27:44.385Z,79.23
2023-02-19T20:30:14.649Z,78.62
2023-02-19T20:32:42.794Z,78.91
2023-02-19T20:35:10.900Z,80.83
2023-02-19T20:37:40.109Z,82.24
2023-02-19T20:40:12.666Z,79.60
2023-02-19T20:42:40.488Z,79.18
2023-02-19T20:45:09.258Z,80.45
2023-02-19T20:47:40.319Z,79.31
2023-02-19T20:50:08.987Z,79.79
2023-02-19T20:52:36.899Z,82.67
2023-02-19T20:55:05.066Z,81.97
2023-02-19T20:57:33.350Z,82.75
2023-02-19T21:00:01.179Z,82.89
2023-02-19T21:02:31.682Z,83.87
2023-02-19T21:05:01.108Z,85.52
2023-02-19T21:07:31.157Z,83.37
2023-02-19T21:09:59.441Z,81.02
2023-02-19T21:12:27.402Z,79.49
2023-02-19T21:14:55.309Z,81.33
2023-02-19T21:17:23.502Z,82.83
2023-02-19T21:19:51.729Z,81.61
2023-02-19T21:22:19.621Z,80.12
2023-02-19T21:24:53.292Z,84.29
2023-02-19T21:27:21.479Z,82.61
2023-02-19T21:29:52.793Z,82.00
2023-02-19T21:32:20.723Z,82.91
2023-02-19T21:34:49.264Z,83.38
2023-02-19T21:37:17.579Z,79.85
2023-02-19T21:39:45.402Z,78.93
2023-02-19T21:42:13.286Z,79.31
2023-02-19T21:44:43.080Z,81.00
2023-02-19T21:47:12.880Z,79.43
2023-02-19T21:49:42.322Z,78.53
2023-02-19T21:52:10.352Z,78.84
2023-02-19T21:54:40.531Z,78.74
2023-02-19T21:57:09.696Z,78.82
2023-02-19T21:59:37.493Z,80.12
2023-02-19T22:02:05.256Z,80.80
2023-02-19T22:04:33.284Z,82.17
2023-02-19T22:07:01.118Z,83.04
2023-02-19T22:09:29.048Z,82.88
2023-02-19T22:11:57.276Z,83.89
2023-02-19T22:14:28.372Z,84.01
2023-02-19T22:16:56.218Z,85.80
2023-02-19T22:19:24.402Z,84.18
2023-02-19T22:21:52.079Z,84.62
2023-02-19T22:24:22.040Z,85.80
2023-02-19T22:26:50.952Z,83.71
2023-02-19T22:29:18.790Z,86.14
2023-02-19T22:31:46.705Z,87.15
2023-02-19T22:34:15.943Z,87.56
2023-02-19T22:36:44.347Z,87.12
2023-02-19T22:39:27.073Z,86.63
2023-02-19T22:41:55.246Z,88.63
2023-02-19T22:44:23.139Z,85.59
2023-02-19T22:46:55.713Z,86.70
2023-02-19T22:49:24.637Z,85.55
2023-02-19T22:51:57.693Z,85.65
2023-02-19T22:54:27.269Z,86.03
2023-02-19T22:56:55.799Z,83.99
2023-02-19T22:59:23.649Z,83.23
2023-02-19T23:01:52.665Z,85.88
2023-02-19T23:04:22.103Z,85.55
2023-02-19T23:06:50.650Z,85.26
2023-02-19T23:09:26.711Z,85.50
2023-02-19T23:12:10.877Z,84.91
2023-02-19T23:14:42.469Z,83.00
2023-02-19T23:17:13.531Z,84.50
2023-02-19T23:19:41.673Z,87.21
2023-02-19T23:22:09.537Z,87.67
2023-02-19T23:24:37.289Z,85.16
2023-02-19T23:27:05.661Z,86.79
2023-02-19T23:29:33.514Z,83.09
2023-02-19T23:32:01.348Z,85.25
2023-02-19T23:34:29.530Z,86.13
2023-02-19T23:36:59.731Z,84.23
2023-02-19T23:39:27.474Z,83.67
2023-02-19T23:41:57.639Z,84.93
2023-02-19T23:44:26.676Z,84.50
2023-02-19T23:46:54.433Z,83.58
2023-02-19T23:49:23.146Z,84.10
2023-02-19T23:51:51.630Z,85.08
2023-02-19T23:54:19.444Z,85.17
2023-02-19T23:56:47.661Z,84.79
2023-02-19T23:59:18.541Z,85.73
